createdAt,value
2023-01-09T00:01:49.423Z,10.73
2023-01-09T00:04:12.684Z,11.40
2023-01-09T00:06:35.440Z,11.65
2023-01-09T00:08:58.028Z,10.82
2023-01-09T00:11:21.047Z,11.10
2023-01-09T00:13:43.654Z,10.90
2023-01-09T00:16:08.399Z,10.50
2023-01-09T00:18:31.091Z,10.55
2023-01-09T00:20:53.731Z,10.65
2023-01-09T00:23:16.256Z,10.20
2023-01-09T00:25:40.013Z,10.25
2023-01-09T00:28:03.908Z,10.40
2023-01-09T00:30:27.348Z,9.73
2023-01-09T00:32:49.991Z,9.27
2023-01-09T00:35:16.780Z,9.03
2023-01-09T00:37:39.490Z,8.73
2023-01-09T00:40:02.334Z,9.32
2023-01-09T00:42:28.346Z,8.85
2023-01-09T00:45:14.490Z,9.57
2023-01-09T00:47:43.139Z,8.73
2023-01-09T00:50:10.303Z,8.75
2023-01-09T00:52:36.017Z,9.10
2023-01-09T00:54:59.718Z,8.77
2023-01-09T00:57:22.398Z,8.40
2023-01-09T00:59:45.138Z,8.73
2023-01-09T01:02:08.034Z,8.73
2023-01-09T01:04:49.294Z,9.50
2023-01-09T01:07:30.418Z,8.93
2023-01-09T01:09:53.134Z,9.10
2023-01-09T01:12:15.761Z,8.80
2023-01-09T01:14:39.616Z,8.45
2023-01-09T01:17:03.029Z,8.82
2023-01-09T01:19:25.654Z,8.75
2023-01-09T01:21:48.223Z,9.02
2023-01-09T01:24:11.036Z,8.40
2023-01-09T01:26:33.601Z,8.63
2023-01-09T01:28:56.263Z,8.93
2023-01-09T01:31:19.816Z,8.40
2023-01-09T01:33:42.558Z,8.27
2023-01-09T01:36:08.282Z,8.07
2023-01-09T01:38:31.727Z,7.85
2023-01-09T01:40:55.233Z,8.05
2023-01-09T01:43:17.782Z,8.13
2023-01-09T01:45:40.889Z,7.90
2023-01-09T01:48:14.137Z,7.87
2023-01-09T01:50:48.682Z,7.68
2023-01-09T01:53:19.088Z,7.53
2023-01-09T01:55:47.200Z,7.13
2023-01-09T01:58:13.459Z,7.03
2023-01-09T02:00:40.452Z,7.50
2023-01-09T02:03:03.308Z,7.20
2023-01-09T02:05:25.993Z,8.00
2023-01-09T02:07:48.615Z,7.63
2023-01-09T02:10:11.299Z,8.30
2023-01-09T02:12:33.917Z,7.70
2023-01-09T02:15:01.022Z,8.13
2023-01-09T02:17:37.503Z,8.35
2023-01-09T02:20:27.687Z,8.60
2023-01-09T02:22:56.039Z,8.23
2023-01-09T02:25:43.301Z,8.30
2023-01-09T02:28:24.448Z,8.10
2023-01-09T02:30:54.711Z,9.23
2023-01-09T02:33:52.033Z,8.75
2023-01-09T02:36:14.703Z,8.98
2023-01-09T02:38:46.292Z,9.43
2023-01-09T02:41:23.090Z,9.02
2023-01-09T02:43:45.737Z,9.90
2023-01-09T02:46:22.919Z,9.75
2023-01-09T02:48:46.612Z,9.65
2023-01-09T02:51:26.485Z,10.13
2023-01-09T02:54:04.261Z,10.43
2023-01-09T02:56:45.482Z,10.68
2023-01-09T02:59:21.296Z,9.82
2023-01-09T03:02:01.991Z,9.93
2023-01-09T03:04:30.526Z,10.20
2023-01-09T03:07:13.118Z,10.43
2023-01-09T03:09:40.024Z,10.32
2023-01-09T03:12:14.436Z,10.30
2023-01-09T03:14:41.817Z,11.48
2023-01-09T03:17:07.923Z,11.00
2023-01-09T03:19:32.229Z,11.25
2023-01-09T03:21:56.020Z,11.10
2023-01-09T03:24:18.678Z,11.00
2023-01-09T03:26:41.571Z,11.00
2023-01-09T03:29:04.771Z,10.77
2023-01-09T03:31:27.810Z,10.77
2023-01-09T03:33:51.064Z,11.40
2023-01-09T03:36:14.832Z,10.55
2023-01-09T03:38:37.457Z,11.00
2023-01-09T03:41:01.160Z,10.93
2023-01-09T03:43:23.868Z,11.80
2023-01-09T03:45:46.571Z,10.98
2023-01-09T03:48:09.363Z,11.90
2023-01-09T03:50:32.074Z,11.45
2023-01-09T03:52:55.778Z,10.43
2023-01-09T03:55:18.567Z,11.10
2023-01-09T03:57:41.282Z,11.93
2023-01-09T04:00:04.582Z,11.25
2023-01-09T04:02:35.156Z,11.82
2023-01-09T04:04:57.703Z,11.33
2023-01-09T04:07:20.276Z,11.10
2023-01-09T04:09:43.169Z,11.25
2023-01-09T04:12:06.137Z,10.80
2023-01-09T04:14:28.749Z,11.15
2023-01-09T04:16:51.494Z,11.20
2023-01-09T04:19:14.363Z,11.18
2023-01-09T04:21:37.173Z,11.75
2023-01-09T04:23:59.979Z,11.10
2023-01-09T04:26:22.556Z,11.93
2023-01-09T04:28:45.537Z,11.53
2023-01-09T04:31:08.062Z,11.23
2023-01-09T04:33:31.019Z,11.48
2023-01-09T04:35:53.645Z,10.90
2023-01-09T04:38:16.468Z,11.30
2023-01-09T04:40:39.357Z,10.97
2023-01-09T04:43:01.972Z,11.32
2023-01-09T04:45:24.588Z,12.10
2023-01-09T04:47:47.969Z,11.70
2023-01-09T04:50:12.465Z,11.63
2023-01-09T04:52:35.229Z,11.60
2023-01-09T04:54:58.500Z,10.93
2023-01-09T04:57:21.411Z,11.25
2023-01-09T04:59:44.049Z,11.57
2023-01-09T05:02:07.039Z,11.95
2023-01-09T05:04:30.373Z,11.77
2023-01-09T05:06:53.119Z,11.13
2023-01-09T05:09:15.855Z,11.75
2023-01-09T05:11:38.521Z,12.52
2023-01-09T05:14:01.172Z,12.48
2023-01-09T05:16:23.830Z,11.53
2023-01-09T05:18:46.495Z,11.75
2023-01-09T05:21:09.160Z,12.27
2023-01-09T05:23:32.041Z,11.93
2023-01-09T05:25:54.714Z,11.73
2023-01-09T05:28:17.284Z,11.40
2023-01-09T05:30:39.989Z,11.63
2023-01-09T05:33:02.552Z,11.63
2023-01-09T05:35:25.135Z,11.18
2023-01-09T05:37:47.669Z,11.80
2023-01-09T05:40:11.035Z,11.93
2023-01-09T05:42:33.648Z,11.23
2023-01-09T05:44:56.594Z,12.30
2023-01-09T05:47:19.209Z,11.30
2023-01-09T05:49:42.037Z,12.25
2023-01-09T05:52:05.253Z,11.30
2023-01-09T05:54:27.920Z,11.85
2023-01-09T05:56:50.428Z,12.30
2023-01-09T05:59:13.268Z,12.07
2023-01-09T06:01:36.076Z,12.18
2023-01-09T06:03:58.762Z,11.70
2023-01-09T06:06:21.353Z,12.45
2023-01-09T06:08:43.966Z,11.90
2023-01-09T06:11:06.551Z,12.43
2023-01-09T06:13:29.150Z,11.98
2023-01-09T06:15:51.855Z,12.23
2023-01-09T06:18:14.871Z,13.27
2023-01-09T06:20:37.522Z,11.90
2023-01-09T06:23:00.185Z,12.15
2023-01-09T06:25:23.263Z,12.23
2023-01-09T06:27:47.743Z,12.23
2023-01-09T06:30:11.077Z,12.43
2023-01-09T06:32:33.763Z,12.57
2023-01-09T06:34:56.457Z,12.02
2023-01-09T06:37:19.246Z,12.55
2023-01-09T06:39:41.998Z,11.63
2023-01-09T06:42:04.804Z,12.02
2023-01-09T06:44:27.551Z,12.07
2023-01-09T06:46:53.869Z,11.73
2023-01-09T06:49:23.516Z,12.48
2023-01-09T06:51:46.368Z,11.30
2023-01-09T06:54:09.268Z,12.20
2023-01-09T06:56:36.001Z,12.40
2023-01-09T06:58:58.701Z,11.48
2023-01-09T07:01:21.604Z,12.00
2023-01-09T07:03:45.117Z,11.63
2023-01-09T07:06:09.662Z,12.15
2023-01-09T07:08:34.522Z,12.63
2023-01-09T07:10:59.667Z,12.10
2023-01-09T07:13:22.932Z,12.68
2023-01-09T07:15:46.245Z,12.00
2023-01-09T07:18:09.447Z,12.23
2023-01-09T07:20:32.302Z,11.70
2023-01-09T07:22:55.447Z,11.52
2023-01-09T07:25:18.248Z,12.00
2023-01-09T07:27:41.239Z,11.77
2023-01-09T07:30:05.898Z,11.40
2023-01-09T07:32:28.652Z,10.95
2023-01-09T07:34:51.779Z,12.25
2023-01-09T07:37:14.685Z,11.60
2023-01-09T07:39:37.827Z,11.40
2023-01-09T07:42:00.502Z,11.60
2023-01-09T07:44:23.787Z,10.88
2023-01-09T07:46:46.435Z,11.75
2023-01-09T07:49:09.422Z,11.82
2023-01-09T07:51:32.382Z,12.30
2023-01-09T07:53:55.107Z,12.48
2023-01-09T07:56:17.998Z,12.10
2023-01-09T07:58:41.759Z,12.18
2023-01-09T08:01:05.379Z,11.27
2023-01-09T08:03:28.537Z,12.13
2023-01-09T08:05:51.758Z,12.05
2023-01-09T08:08:15.262Z,12.57
2023-01-09T08:10:37.935Z,11.80
2023-01-09T08:13:00.604Z,12.00
2023-01-09T08:15:23.223Z,12.43
2023-01-09T08:17:47.085Z,12.63
2023-01-09T08:20:12.279Z,12.38
2023-01-09T08:22:35.044Z,13.23
2023-01-09T08:24:57.798Z,12.07
2023-01-09T08:27:20.508Z,12.30
2023-01-09T08:29:44.107Z,12.38
2023-01-09T08:32:07.014Z,12.48
2023-01-09T08:34:30.568Z,13.60
2023-01-09T08:36:54.212Z,12.52
2023-01-09T08:39:17.068Z,12.00
2023-01-09T08:41:58.113Z,12.63
2023-01-09T08:45:00.385Z,12.25
2023-01-09T08:47:24.864Z,12.45
2023-01-09T08:49:47.615Z,12.57
2023-01-09T08:52:10.717Z,12.40
2023-01-09T08:54:34.162Z,12.60
2023-01-09T08:56:57.286Z,12.82
2023-01-09T08:59:20.160Z,13.40
2023-01-09T09:01:43.480Z,12.55
2023-01-09T09:04:06.470Z,12.00
2023-01-09T09:06:29.141Z,12.75
2023-01-09T09:08:51.818Z,12.90
2023-01-09T09:11:14.855Z,14.57
2023-01-09T09:13:37.715Z,13.70
2023-01-09T09:16:00.507Z,13.30
2023-01-09T09:18:23.311Z,13.52
2023-01-09T09:20:46.107Z,13.35
2023-01-09T09:23:08.833Z,14.13
2023-01-09T09:25:31.692Z,14.18
2023-01-09T09:27:56.432Z,14.20
2023-01-09T09:30:20.902Z,13.52
2023-01-09T09:32:43.570Z,13.73
2023-01-09T09:35:06.995Z,13.23
2023-01-09T09:37:29.611Z,14.13
2023-01-09T09:39:53.105Z,13.37
2023-01-09T09:42:46.571Z,13.50
2023-01-09T09:45:43.165Z,14.30
2023-01-09T09:48:41.473Z,13.52
2023-01-09T09:51:36.410Z,14.00
2023-01-09T09:54:22.691Z,13.60
2023-01-09T09:56:53.310Z,13.13
2023-01-09T09:59:20.377Z,14.00
2023-01-09T10:01:51.659Z,12.55
2023-01-09T10:04:18.690Z,13.40
2023-01-09T10:06:44.949Z,13.00
2023-01-09T10:09:17.038Z,13.50
2023-01-09T10:11:52.786Z,14.23
2023-01-09T10:14:23.540Z,14.35
2023-01-09T10:17:06.298Z,13.65
2023-01-09T10:19:44.428Z,13.83
2023-01-09T10:22:19.305Z,14.00
2023-01-09T10:25:06.868Z,13.55
2023-01-09T10:27:54.509Z,13.05
2023-01-09T10:30:46.125Z,13.05
2023-01-09T10:33:45.759Z,12.67
2023-01-09T10:36:26.573Z,12.68
2023-01-09T10:38:53.205Z,13.45
2023-01-09T10:41:29.108Z,13.63
2023-01-09T10:44:19.407Z,13.35
2023-01-09T10:46:49.153Z,13.50
2023-01-09T10:49:18.849Z,12.98
2023-01-09T10:51:48.134Z,12.90
2023-01-09T10:54:16.381Z,14.27
2023-01-09T10:56:45.307Z,14.32
2023-01-09T10:59:09.742Z,14.77
2023-01-09T11:01:37.668Z,15.23
2023-01-09T11:04:02.336Z,15.32
2023-01-09T11:06:32.748Z,15.88
2023-01-09T11:08:59.184Z,15.43
2023-01-09T11:11:43.101Z,14.77
2023-01-09T11:14:31.622Z,14.77
2023-01-09T11:16:56.920Z,13.80
2023-01-09T11:19:20.114Z,14.00
2023-01-09T11:21:43.131Z,14.48
2023-01-09T11:24:21.474Z,14.70
2023-01-09T11:26:47.405Z,14.52
2023-01-09T11:29:21.216Z,14.65
2023-01-09T11:31:53.461Z,14.85
2023-01-09T11:34:22.028Z,15.07
2023-01-09T11:36:45.673Z,15.93
2023-01-09T11:39:25.736Z,16.10
2023-01-09T11:41:53.645Z,15.38
2023-01-09T11:44:16.463Z,15.02
2023-01-09T11:46:44.100Z,15.98
2023-01-09T11:49:12.983Z,15.47
2023-01-09T11:51:36.990Z,15.50
2023-01-09T11:54:24.534Z,16.73
2023-01-09T11:56:48.616Z,16.23
2023-01-09T11:59:14.457Z,16.42
2023-01-09T12:01:37.202Z,15.63
2023-01-09T12:04:17.817Z,16.75
2023-01-09T12:06:59.119Z,15.85
2023-01-09T12:09:52.870Z,15.27
2023-01-09T12:12:35.426Z,14.65
2023-01-09T12:15:16.084Z,14.87
2023-01-09T12:18:05.555Z,15.23
2023-01-09T12:20:38.451Z,15.02
2023-01-09T12:23:23.353Z,14.93
2023-01-09T12:26:06.265Z,15.15
2023-01-09T12:28:35.502Z,16.37
2023-01-09T12:31:26.241Z,15.63
2023-01-09T12:33:57.615Z,15.20
2023-01-09T12:36:37.323Z,15.35
2023-01-09T12:39:09.498Z,14.73
2023-01-09T12:41:38.130Z,14.60
2023-01-09T12:44:39.212Z,15.52
2023-01-09T12:47:23.676Z,14.88
2023-01-09T12:50:21.204Z,15.80
2023-01-09T12:52:57.039Z,16.02
2023-01-09T12:55:23.995Z,16.17
2023-01-09T12:57:51.162Z,17.13
2023-01-09T13:00:23.822Z,17.27
2023-01-09T13:03:03.646Z,17.80
2023-01-09T13:05:37.631Z,18.17
2023-01-09T13:08:08.568Z,19.27
2023-01-09T13:10:42.160Z,19.67
2023-01-09T13:13:38.459Z,19.17
2023-01-09T13:16:05.622Z,18.58
2023-01-09T13:19:12.160Z,18.45
2023-01-09T13:21:35.509Z,16.27
2023-01-09T13:24:11.037Z,15.68
2023-01-09T13:26:45.644Z,15.55
2023-01-09T13:29:26.698Z,14.98
2023-01-09T13:32:08.528Z,14.32
2023-01-09T13:34:34.128Z,15.53
2023-01-09T13:36:58.799Z,14.27
2023-01-09T13:39:40.419Z,15.27
2023-01-09T13:42:25.449Z,14.77
2023-01-09T13:44:51.189Z,13.93
2023-01-09T13:47:22.932Z,14.33
2023-01-09T13:49:45.499Z,14.40
2023-01-09T13:52:36.802Z,13.88
2023-01-09T13:55:24.402Z,13.82
2023-01-09T13:58:05.753Z,14.00
2023-01-09T14:00:28.384Z,12.80
2023-01-09T14:02:56.614Z,13.75
2023-01-09T14:05:25.032Z,13.57
2023-01-09T14:07:49.989Z,14.18
2023-01-09T14:10:25.871Z,14.85
2023-01-09T14:12:49.464Z,15.27
2023-01-09T14:15:26.983Z,14.80
2023-01-09T14:18:15.178Z,15.10
2023-01-09T14:20:41.646Z,15.05
2023-01-09T14:23:28.006Z,25.73
2023-01-09T14:25:48.222Z,23.03
2023-01-09T14:28:22.975Z,23.13
2023-01-09T14:30:54.379Z,21.77
2023-01-09T14:33:20.213Z,20.27
2023-01-09T14:35:54.632Z,22.38
2023-01-09T14:38:37.755Z,18.60
2023-01-09T14:41:21.199Z,17.95
2023-01-09T14:44:06.553Z,22.52
2023-01-09T14:46:37.763Z,23.02
2023-01-09T14:49:07.459Z,23.25
2023-01-09T14:51:35.599Z,24.37
2023-01-09T14:54:01.660Z,22.80
2023-01-09T14:56:28.715Z,20.65
2023-01-09T14:59:12.805Z,19.70
2023-01-09T15:01:36.440Z,19.25
2023-01-09T15:04:03.012Z,17.47
2023-01-09T15:06:29.151Z,18.83
2023-01-09T15:09:24.573Z,19.55
2023-01-09T15:11:47.655Z,19.52
2023-01-09T15:14:33.069Z,18.70
2023-01-09T15:16:56.079Z,17.73
2023-01-09T15:19:19.721Z,19.00
2023-01-09T15:21:56.768Z,19.10
2023-01-09T15:24:22.858Z,19.55
2023-01-09T15:26:53.216Z,18.67
2023-01-09T15:29:20.607Z,19.07
2023-01-09T15:31:45.530Z,18.90
2023-01-09T15:34:17.453Z,19.73
2023-01-09T15:36:40.357Z,19.77
2023-01-09T15:39:06.763Z,22.48
2023-01-09T15:41:49.331Z,22.47
2023-01-09T15:44:21.094Z,23.42
2023-01-09T15:46:46.519Z,22.75
2023-01-09T15:49:12.372Z,24.27
2023-01-09T15:51:35.266Z,23.50
2023-01-09T15:54:00.783Z,22.50
2023-01-09T15:56:25.690Z,20.98
2023-01-09T15:58:52.790Z,19.75
2023-01-09T16:01:35.321Z,21.30
2023-01-09T16:04:18.265Z,21.10
2023-01-09T16:06:49.294Z,20.67
2023-01-09T16:09:41.908Z,21.85
2023-01-09T16:12:04.875Z,22.55
2023-01-09T16:14:38.591Z,22.80
2023-01-09T16:17:07.760Z,24.40
2023-01-09T16:19:47.120Z,22.13
2023-01-09T16:22:31.394Z,22.38
2023-01-09T16:24:57.441Z,22.92
2023-01-09T16:27:27.308Z,22.80
2023-01-09T16:29:57.410Z,23.23
2023-01-09T16:32:24.334Z,22.30
2023-01-09T16:34:52.241Z,22.45
2023-01-09T16:37:14.849Z,21.58
2023-01-09T16:39:38.812Z,21.27
2023-01-09T16:42:20.412Z,22.60
2023-01-09T16:44:43.166Z,20.53
2023-01-09T16:47:05.887Z,20.40
2023-01-09T16:49:29.032Z,21.52
2023-01-09T16:51:51.913Z,21.55
2023-01-09T16:54:15.288Z,22.38
2023-01-09T16:56:39.376Z,23.63
2023-01-09T16:59:02.013Z,26.52
2023-01-09T17:01:25.546Z,27.48
2023-01-09T17:03:48.492Z,25.63
2023-01-09T17:06:31.493Z,22.90
2023-01-09T17:08:54.354Z,21.23
2023-01-09T17:11:31.599Z,21.40
2023-01-09T17:13:54.422Z,23.92
2023-01-09T17:16:18.454Z,22.70
2023-01-09T17:18:41.670Z,22.98
2023-01-09T17:21:04.334Z,22.47
2023-01-09T17:23:27.118Z,22.58
2023-01-09T17:26:11.609Z,24.10
2023-01-09T17:28:35.928Z,22.98
2023-01-09T17:31:10.585Z,22.05
2023-01-09T17:33:33.781Z,22.10
2023-01-09T17:35:56.840Z,22.40
2023-01-09T17:38:19.927Z,22.40
2023-01-09T17:40:43.717Z,23.67
2023-01-09T17:43:06.351Z,23.23
2023-01-09T17:45:29.042Z,23.93
2023-01-09T17:47:52.119Z,22.60
2023-01-09T17:50:19.721Z,25.42
2023-01-09T17:52:42.336Z,25.70
2023-01-09T17:55:05.525Z,25.38
2023-01-09T17:57:28.305Z,24.57
2023-01-09T17:59:50.969Z,24.75
2023-01-09T18:02:18.059Z,23.80
2023-01-09T18:04:40.639Z,23.45
2023-01-09T18:07:03.197Z,25.85
2023-01-09T18:09:25.870Z,25.37
2023-01-09T18:11:48.747Z,23.45
2023-01-09T18:14:13.683Z,24.02
2023-01-09T18:16:37.455Z,23.40
2023-01-09T18:19:01.588Z,24.50
2023-01-09T18:21:26.547Z,23.87
2023-01-09T18:23:50.222Z,24.15
2023-01-09T18:26:20.363Z,25.27
2023-01-09T18:28:42.991Z,24.00
2023-01-09T18:31:06.495Z,24.48
2023-01-09T18:33:29.100Z,23.73
2023-01-09T18:35:52.337Z,22.70
2023-01-09T18:38:16.517Z,24.08
2023-01-09T18:40:39.431Z,24.38
2023-01-09T18:43:07.930Z,22.83
2023-01-09T18:45:31.910Z,25.10
2023-01-09T18:47:55.415Z,25.08
2023-01-09T18:50:18.140Z,26.38
2023-01-09T18:52:40.704Z,25.30
2023-01-09T18:55:03.898Z,26.05
2023-01-09T18:57:26.713Z,24.23
2023-01-09T18:59:50.101Z,25.10
2023-01-09T19:02:24.658Z,25.52
2023-01-09T19:04:47.820Z,24.00
2023-01-09T19:07:10.738Z,23.63
2023-01-09T19:09:33.588Z,24.03
2023-01-09T19:11:56.494Z,23.80
2023-01-09T19:14:19.391Z,23.23
2023-01-09T19:16:42.770Z,24.73
2023-01-09T19:19:06.670Z,24.35
2023-01-09T19:21:29.879Z,25.03
2023-01-09T19:23:52.938Z,24.00
2023-01-09T19:26:24.686Z,24.95
2023-01-09T19:28:47.967Z,24.58
2023-01-09T19:31:11.235Z,24.05
2023-01-09T19:33:34.465Z,24.13
2023-01-09T19:35:57.233Z,23.65
2023-01-09T19:38:22.642Z,23.00
2023-01-09T19:40:45.166Z,23.80
2023-01-09T19:43:07.950Z,24.35
2023-01-09T19:45:30.564Z,22.37
2023-01-09T19:47:53.526Z,23.08
2023-01-09T19:50:17.917Z,22.35
2023-01-09T19:52:43.300Z,21.20
2023-01-09T19:55:06.362Z,19.58
2023-01-09T19:57:29.404Z,20.93
2023-01-09T19:59:52.391Z,19.42
2023-01-09T20:02:15.902Z,19.05
2023-01-09T20:04:38.814Z,20.67
2023-01-09T20:07:01.488Z,20.30
2023-01-09T20:09:27.507Z,18.17
2023-01-09T20:11:50.266Z,19.92
2023-01-09T20:14:14.333Z,21.02
2023-01-09T20:16:37.250Z,19.95
2023-01-09T20:19:07.478Z,20.33
2023-01-09T20:21:30.472Z,18.60
2023-01-09T20:23:55.174Z,18.92
2023-01-09T20:26:18.781Z,18.10
2023-01-09T20:28:41.502Z,19.17
2023-01-09T20:31:05.833Z,19.27
2023-01-09T20:33:28.583Z,17.67
2023-01-09T20:35:51.351Z,19.92
2023-01-09T20:38:14.385Z,19.88
2023-01-09T20:40:37.954Z,20.38
2023-01-09T20:43:00.593Z,20.83
2023-01-09T20:45:23.889Z,20.37
2023-01-09T20:47:46.527Z,20.17
2023-01-09T20:50:10.049Z,19.67
2023-01-09T20:52:32.712Z,18.35
2023-01-09T20:54:55.363Z,19.90
2023-01-09T20:57:18.004Z,19.93
2023-01-09T20:59:40.910Z,19.00
2023-01-09T21:02:03.489Z,18.63
2023-01-09T21:04:26.291Z,18.42
2023-01-09T21:06:50.142Z,17.98
2023-01-09T21:09:13.147Z,18.70
2023-01-09T21:11:35.669Z,17.85
2023-01-09T21:13:58.247Z,18.05
2023-01-09T21:16:24.451Z,17.40
2023-01-09T21:18:48.342Z,16.33
2023-01-09T21:21:16.958Z,16.80
2023-01-09T21:23:44.290Z,16.70
2023-01-09T21:26:11.233Z,16.60
2023-01-09T21:28:40.509Z,16.83
2023-01-09T21:31:03.349Z,17.15
2023-01-09T21:33:26.054Z,17.20
2023-01-09T21:35:53.817Z,17.25
2023-01-09T21:38:16.523Z,17.10
2023-01-09T21:40:39.187Z,16.77
2023-01-09T21:43:20.043Z,15.32
2023-01-09T21:46:01.240Z,17.10
2023-01-09T21:48:24.122Z,16.50
2023-01-09T21:50:46.696Z,17.75
2023-01-09T21:53:09.458Z,17.10
2023-01-09T21:55:32.248Z,16.33
2023-01-09T21:57:58.502Z,17.80
2023-01-09T22:00:21.352Z,16.65
2023-01-09T22:02:45.393Z,16.35
2023-01-09T22:05:08.072Z,15.73
2023-01-09T22:07:51.500Z,15.82
2023-01-09T22:10:15.078Z,15.77
2023-01-09T22:12:37.803Z,15.40
2023-01-09T22:15:00.414Z,15.85
2023-01-09T22:17:23.061Z,15.88
2023-01-09T22:19:46.017Z,16.70
2023-01-09T22:22:08.621Z,16.27
2023-01-09T22:24:31.310Z,14.85
2023-01-09T22:26:53.944Z,16.05
2023-01-09T22:29:16.584Z,16.08
2023-01-09T22:31:40.171Z,15.95
2023-01-09T22:34:02.808Z,15.10
2023-01-09T22:36:27.934Z,14.38
2023-01-09T22:38:54.178Z,14.45
2023-01-09T22:41:16.802Z,14.13
2023-01-09T22:43:39.696Z,13.50
2023-01-09T22:46:05.271Z,13.77
2023-01-09T22:48:31.657Z,14.32
2023-01-09T22:50:58.631Z,14.48
2023-01-09T22:53:21.211Z,14.73
2023-01-09T22:55:43.778Z,14.27
2023-01-09T22:58:06.431Z,13.90
2023-01-09T23:00:29.079Z,13.65
2023-01-09T23:02:51.930Z,13.80
2023-01-09T23:05:15.073Z,12.07
2023-01-09T23:07:37.698Z,13.23
2023-01-09T23:10:02.072Z,12.50
2023-01-09T23:12:24.890Z,14.18
2023-01-09T23:14:47.486Z,13.50
2023-01-09T23:17:13.096Z,13.30
2023-01-09T23:19:36.479Z,13.52
2023-01-09T23:22:17.671Z,14.27
2023-01-09T23:24:58.906Z,13.20
2023-01-09T23:27:40.581Z,13.52
2023-01-09T23:30:21.942Z,13.05
2023-01-09T23:32:45.047Z,12.75
2023-01-09T23:35:07.857Z,12.27
2023-01-09T23:37:30.537Z,13.35
2023-01-09T23:39:53.238Z,12.30
2023-01-09T23:42:34.785Z,10.90
2023-01-09T23:44:57.469Z,11.73
2023-01-09T23:47:20.249Z,12.30
2023-01-09T23:49:43.140Z,12.95
2023-01-09T23:52:06.692Z,12.38
2023-01-09T23:54:29.304Z,12.90
2023-01-09T23:56:53.447Z,12.55
2023-01-09T23:59:17.643Z,12.37
